Time;durP1;ratioP1;P1;durP2;ratioP2;P2;SDS_P1;SDS_P2;PMS_P1;PMS_P2;Temp;Humidity;BMP_temperature;BMP_pressure;BME280_temperature;BME280_humidity;BME280_pressure;Samples;Min_cycle;Max_cycle;Signal;HPM_P1;HPM_P2
2022/08/30 00:01:05;;;;;;;1.70;1.70;;;24.70;63.50;;;;;;5006865;28;44994;-73
2022/08/30 00:03:35;;;;;;;1.70;1.70;;;24.70;63.00;;;;;;5023910;28;43449;-73
2022/08/30 00:06:05;;;;;;;2.07;2.07;;;24.90;62.70;;;;;;5002082;28;43958;-73
2022/08/30 00:08:33;;;;;;;1.87;1.87;;;24.90;62.50;;;;;;5008480;28;43620;-72
2022/08/30 00:11:01;;;;;;;1.70;1.70;;;24.90;62.40;;;;;;5001983;28;43420;-72
2022/08/30 00:13:29;;;;;;;1.70;1.70;;;24.90;62.30;;;;;;4997994;28;43644;-72
2022/08/30 00:15:59;;;;;;;2.53;1.53;;;24.80;62.90;;;;;;5000800;28;43507;-73
2022/08/30 00:18:27;;;;;;;1.70;1.70;;;24.70;63.00;;;;;;5002218;28;43629;-72
2022/08/30 00:20:55;;;;;;;1.77;1.77;;;24.70;62.90;;;;;;5007089;28;43961;-72
2022/08/30 00:23:24;;;;;;;1.80;1.80;;;24.70;62.70;;;;;;5008515;28;43367;-72
2022/08/30 00:25:52;;;;;;;1.80;1.80;;;24.70;63.30;;;;;;5008188;28;43993;-73
2022/08/30 00:28:20;;;;;;;1.47;1.47;;;24.60;63.50;;;;;;5008267;28;43885;-73
2022/08/30 00:30:48;;;;;;;1.70;1.70;;;24.60;63.40;;;;;;5008160;28;43449;-74
2022/08/30 00:33:17;;;;;;;1.50;1.50;;;24.60;63.00;;;;;;5006208;28;43527;-71
2022/08/30 00:35:45;;;;;;;1.60;1.60;;;24.60;63.60;;;;;;5008874;28;43502;-74
2022/08/30 00:38:14;;;;;;;1.80;1.80;;;24.60;63.80;;;;;;5006019;28;45541;-72
2022/08/30 00:40:43;;;;;;;1.70;1.60;;;24.60;63.40;;;;;;5006731;28;44797;-72
2022/08/30 00:43:13;;;;;;;1.80;1.80;;;24.70;62.90;;;;;;5007903;28;43966;-73
2022/08/30 00:45:42;;;;;;;1.50;1.50;;;24.90;62.60;;;;;;5008496;28;43364;-72
2022/08/30 00:48:10;;;;;;;1.50;1.50;;;24.90;62.50;;;;;;5007577;28;43921;-73
2022/08/30 00:50:42;;;;;;;1.83;1.77;;;24.90;62.40;;;;;;5007922;28;44141;-73
2022/08/30 00:53:12;;;;;;;1.70;1.70;;;24.80;62.30;;;;;;5007638;28;43396;-72
2022/08/30 00:55:40;;;;;;;1.43;1.43;;;24.80;62.90;;;;;;5008557;28;43353;-73
2022/08/30 00:58:13;;;;;;;1.50;1.50;;;24.80;63.00;;;;;;5007685;28;43702;-72
2022/08/30 01:00:41;;;;;;;1.60;1.60;;;24.70;62.80;;;;;;5008509;28;43377;-71
2022/08/30 01:03:08;;;;;;;1.70;1.70;;;24.70;62.70;;;;;;5007797;28;43387;-73
2022/08/30 01:05:39;;;;;;;1.60;1.60;;;24.60;63.30;;;;;;5008098;28;43389;-71
2022/08/30 01:08:07;;;;;;;1.50;1.50;;;24.70;63.40;;;;;;5007329;28;44129;-72
2022/08/30 01:10:35;;;;;;;1.60;1.60;;;24.70;62.90;;;;;;5007877;28;43352;-71
2022/08/30 01:13:03;;;;;;;1.70;1.70;;;24.90;62.50;;;;;;5007401;28;44028;-71
2022/08/30 01:15:31;;;;;;;1.47;1.47;;;24.90;62.20;;;;;;5022769;28;43716;-71
2022/08/30 01:18:00;;;;;;;1.60;1.60;;;24.90;62.20;;;;;;5013265;28;44004;-73
2022/08/30 01:20:31;;;;;;;1.53;1.53;;;24.90;62.20;;;;;;5007342;28;43406;-71
2022/08/30 01:23:11;;;;;;;1.40;1.40;;;24.80;62.50;;;;;;5005776;28;43411;-71
2022/08/30 01:25:41;;;;;;;1.60;1.60;;;24.80;62.90;;;;;;5007516;28;43425;-71
2022/08/30 01:28:11;;;;;;;1.83;1.63;;;24.70;62.90;;;;;;5007134;28;43620;-71
2022/08/30 01:30:39;;;;;;;1.50;1.50;;;24.70;62.80;;;;;;5007455;28;43423;-72
2022/08/30 01:33:07;;;;;;;1.53;1.53;;;24.70;62.90;;;;;;5006746;28;43399;-71
2022/08/30 01:35:39;;;;;;;1.53;1.53;;;24.60;63.50;;;;;;5007968;28;43412;-70
2022/08/30 01:38:09;;;;;;;1.70;1.70;;;24.60;63.40;;;;;;5000400;28;43881;-70
2022/08/30 01:40:37;;;;;;;1.50;1.50;;;24.60;63.20;;;;;;5001244;28;43401;-70
2022/08/30 01:43:06;;;;;;;1.60;1.60;;;24.60;63.20;;;;;;5005346;28;43385;-73
2022/08/30 01:45:33;;;;;;;1.37;1.37;;;24.50;63.70;;;;;;5007695;28;43537;-71
2022/08/30 01:48:01;;;;;;;1.50;1.50;;;24.60;63.70;;;;;;5006741;28;43956;-71
2022/08/30 01:50:33;;;;;;;1.40;1.40;;;24.60;63.30;;;;;;5007311;28;43432;-71
2022/08/30 01:53:04;;;;;;;1.70;1.70;;;24.60;63.10;;;;;;5006824;28;43356;-71
2022/08/30 01:55:37;;;;;;;1.50;1.50;;;24.50;63.70;;;;;;5007533;28;43532;-70
2022/08/30 01:58:05;;;;;;;1.50;1.50;;;24.50;63.70;;;;;;5006556;28;43614;-72
2022/08/30 02:00:33;;;;;;;1.40;1.40;;;24.60;63.30;;;;;;5006156;28;45563;-70
2022/08/30 02:03:01;;;;;;;1.37;1.37;;;24.70;62.60;;;;;;5006791;28;43452;-70
2022/08/30 02:05:30;;;;;;;1.50;1.50;;;24.90;63.10;;;;;;5007158;28;43459;-71
2022/08/30 02:08:00;;;;;;;1.60;1.60;;;25.00;62.10;;;;;;5004846;28;44047;-72
2022/08/30 02:10:29;;;;;;;1.50;1.50;;;25.00;62.10;;;;;;5006893;28;43447;-72
2022/08/30 02:12:59;;;;;;;1.53;1.53;;;25.00;62.10;;;;;;5005095;28;43396;-70
2022/08/30 02:15:27;;;;;;;1.60;1.60;;;24.90;62.50;;;;;;5007506;28;43480;-70
2022/08/30 02:17:55;;;;;;;1.67;1.67;;;24.80;62.40;;;;;;5004234;28;45558;-71
2022/08/30 02:20:23;;;;;;;1.60;1.60;;;24.80;62.60;;;;;;5005042;28;44791;-70
2022/08/30 02:22:51;;;;;;;1.43;1.43;;;24.70;62.40;;;;;;5005150;28;43467;-73
2022/08/30 02:25:19;;;;;;;1.50;1.50;;;24.70;62.90;;;;;;5006729;28;43998;-72
2022/08/30 02:27:48;;;;;;;1.60;1.60;;;24.70;63.20;;;;;;5007022;28;43859;-70
2022/08/30 02:30:17;;;;;;;1.40;1.40;;;24.70;63.20;;;;;;5004636;28;44985;-73
2022/08/30 02:32:45;;;;;;;1.43;1.43;;;24.60;62.90;;;;;;5006789;28;43582;-71
2022/08/30 02:35:13;;;;;;;1.50;1.50;;;24.60;63.30;;;;;;5005330;28;43516;-71
2022/08/30 02:37:41;;;;;;;1.40;1.40;;;24.60;63.40;;;;;;5006400;28;44044;-72
2022/08/30 02:40:10;;;;;;;1.40;1.40;;;24.70;62.90;;;;;;5006244;28;43448;-72
2022/08/30 02:42:40;;;;;;;1.50;1.50;;;24.80;62.60;;;;;;5006994;28;43314;-71
2022/08/30 02:45:09;;;;;;;1.43;1.43;;;24.90;62.40;;;;;;5005852;28;43575;-72
2022/08/30 02:47:38;;;;;;;1.50;1.50;;;24.90;62.30;;;;;;5004618;28;46036;-70
2022/08/30 02:50:13;;;;;;;1.20;1.20;;;24.80;62.20;;;;;;5006715;28;43448;-70
2022/08/30 02:52:41;;;;;;;1.50;1.40;;;24.80;62.50;;;;;;5006885;28;43422;-71
2022/08/30 02:55:12;;;;;;;1.30;1.30;;;24.70;62.80;;;;;;5006553;28;43372;-71
2022/08/30 02:57:40;;;;;;;1.43;1.43;;;24.70;62.90;;;;;;5004541;28;45567;-71
2022/08/30 03:00:09;;;;;;;1.50;1.50;;;24.70;62.70;;;;;;5020700;28;45006;-72
2022/08/30 03:02:39;;;;;;;1.30;1.30;;;24.60;62.90;;;;;;5006203;28;43447;-71
2022/08/30 03:05:07;;;;;;;1.40;1.40;;;24.60;63.20;;;;;;5006370;28;43427;-70
2022/08/30 03:07:35;;;;;;;1.57;1.57;;;24.60;62.90;;;;;;5021067;28;45801;-72
2022/08/30 03:10:03;;;;;;;1.40;1.40;;;24.70;62.50;;;;;;5020475;28;45990;-72
2022/08/30 03:12:32;;;;;;;1.30;1.30;;;24.80;62.10;;;;;;5006677;28;43850;-70
2022/08/30 03:15:01;;;;;;;1.50;1.50;;;24.90;62.20;;;;;;5006037;28;43980;-70
2022/08/30 03:17:29;;;;;;;1.40;1.40;;;24.90;62.20;;;;;;5005829;28;43942;-72
2022/08/30 03:20:01;;;;;;;1.40;1.40;;;24.80;62.00;;;;;;5005634;28;43351;-71
2022/08/30 03:22:29;;;;;;;1.30;1.30;;;24.80;62.70;;;;;;5000034;28;43387;-71
2022/08/30 03:25:00;;;;;;;1.40;1.40;;;24.70;62.70;;;;;;5005792;28;43422;-71
2022/08/30 03:27:28;;;;;;;1.33;1.33;;;24.70;62.70;;;;;;4998613;28;45331;-70
2022/08/30 03:29:56;;;;;;;1.30;1.30;;;24.70;62.50;;;;;;5005401;28;43443;-71
2022/08/30 03:32:24;;;;;;;1.27;1.27;;;24.60;63.00;;;;;;5006251;28;43460;-72
2022/08/30 03:34:52;;;;;;;1.40;1.40;;;24.60;63.10;;;;;;5006529;28;43352;-71
2022/08/30 03:37:22;;;;;;;1.33;1.33;;;24.60;63.00;;;;;;5005550;28;43851;-72
2022/08/30 03:39:54;;;;;;;1.30;1.30;;;24.50;62.60;;;;;;5005497;28;43358;-73
2022/08/30 03:42:23;;;;;;;1.50;1.40;;;24.50;63.10;;;;;;5006203;28;43427;-71
2022/08/30 03:44:51;;;;;;;1.40;1.40;;;24.50;63.30;;;;;;5006228;28;43368;-73
2022/08/30 03:47:20;;;;;;;1.30;1.30;;;24.50;62.80;;;;;;5003474;28;45372;-73
2022/08/30 03:49:48;;;;;;;1.50;1.50;;;24.70;62.50;;;;;;5019677;28;44928;-71
2022/08/30 03:52:16;;;;;;;1.20;1.20;;;24.80;62.00;;;;;;5004532;28;43738;-75
2022/08/30 03:54:46;;;;;;;1.40;1.40;;;24.90;61.90;;;;;;5006799;28;43424;-71
2022/08/30 03:57:14;;;;;;;1.27;1.27;;;24.90;61.90;;;;;;5008480;28;44108;-71
2022/08/30 03:59:51;;;;;;;1.40;1.40;;;24.80;61.70;;;;;;5008792;28;43434;-72
2022/08/30 04:02:19;;;;;;;1.40;1.40;;;24.80;62.40;;;;;;5007443;28;43484;-73
2022/08/30 04:04:47;;;;;;;1.70;1.70;;;24.80;62.40;;;;;;5009305;28;43380;-70
2022/08/30 04:07:15;;;;;;;1.43;1.43;;;24.70;62.40;;;;;;5007262;28;44324;-70
2022/08/30 04:09:43;;;;;;;1.50;1.50;;;24.70;62.20;;;;;;5008979;28;43341;-71
2022/08/30 04:12:12;;;;;;;1.40;1.40;;;24.60;62.90;;;;;;5009129;28;44028;-71
2022/08/30 04:14:45;;;;;;;1.60;1.50;;;24.60;63.10;;;;;;5009537;28;43362;-71
2022/08/30 04:17:13;;;;;;;7.87;2.37;;;24.60;63.00;;;;;;5008492;28;43750;-71
2022/08/30 04:19:41;;;;;;;46.20;5.00;;;24.50;62.30;;;;;;5008780;28;43965;-71
2022/08/30 04:22:09;;;;;;;55.90;6.10;;;24.50;62.40;;;;;;5008321;28;43718;-71
2022/08/30 04:24:37;;;;;;;41.77;4.90;;;24.50;61.80;;;;;;5007160;28;43614;-70
2022/08/30 04:27:05;;;;;;;34.87;4.43;;;24.50;61.80;;;;;;5007995;28;43717;-71
2022/08/30 04:29:34;;;;;;;32.00;4.10;;;24.60;61.70;;;;;;5006214;28;44684;-71
2022/08/30 04:32:03;;;;;;;25.60;5.07;;;24.80;61.40;;;;;;5007894;28;43383;-71
2022/08/30 04:34:31;;;;;;;26.13;3.87;;;24.80;61.40;;;;;;5007520;28;43533;-69
2022/08/30 04:36:59;;;;;;;23.10;4.70;;;24.80;61.40;;;;;;5006252;28;44241;-71
2022/08/30 04:39:27;;;;;;;20.67;3.90;;;24.80;61.40;;;;;;5008606;28;43384;-72
2022/08/30 04:41:56;;;;;;;17.60;3.90;;;24.70;61.80;;;;;;5006662;28;43477;-72
2022/08/30 04:44:26;;;;;;;22.47;4.10;;;24.70;62.10;;;;;;5008605;28;43794;-72
2022/08/30 04:46:55;;;;;;;14.20;3.50;;;24.70;62.20;;;;;;5008592;28;44163;-72
2022/08/30 04:49:23;;;;;;;8.90;3.30;;;24.60;62.00;;;;;;5009131;28;43370;-71
2022/08/30 04:51:51;;;;;;;18.10;3.80;;;24.60;62.30;;;;;;5007341;28;43913;-71
2022/08/30 04:54:19;;;;;;;11.27;3.77;;;24.50;62.60;;;;;;5009305;28;43386;-71
2022/08/30 04:56:47;;;;;;;7.13;3.10;;;24.50;62.60;;;;;;5008804;28;43944;-72
2022/08/30 04:59:15;;;;;;;6.83;3.30;;;24.50;62.40;;;;;;5006968;28;45136;-71
2022/08/30 05:01:43;;;;;;;9.30;3.33;;;24.50;62.30;;;;;;5007080;28;43518;-70
2022/08/30 05:04:14;;;;;;;8.17;3.07;;;24.50;63.00;;;;;;5007045;28;43846;-71
2022/08/30 05:06:42;;;;;;;8.63;3.13;;;24.50;62.60;;;;;;5008401;28;44033;-71
2022/08/30 05:09:10;;;;;;;9.70;3.40;;;24.60;62.20;;;;;;5008581;28;43935;-72
2022/08/30 05:11:38;;;;;;;7.60;3.13;;;24.70;61.80;;;;;;5008689;28;43353;-70
2022/08/30 05:14:06;;;;;;;9.17;2.83;;;24.80;61.40;;;;;;5008635;28;43392;-71
2022/08/30 05:16:34;;;;;;;4.20;2.70;;;24.90;61.50;;;;;;5006831;28;46169;-72
2022/08/30 05:19:02;;;;;;;5.17;3.00;;;24.80;62.20;;;;;;5007722;28;43709;-71
2022/08/30 05:21:32;;;;;;;4.00;2.40;;;24.80;62.00;;;;;;5008214;28;43395;-71
2022/08/30 05:24:00;;;;;;;6.03;2.80;;;24.70;61.90;;;;;;5008492;28;43397;-71
2022/08/30 05:26:30;;;;;;;6.00;2.97;;;24.70;61.80;;;;;;5023072;28;45770;-69
2022/08/30 05:28:58;;;;;;;3.97;2.50;;;24.70;61.90;;;;;;5022331;28;44661;-70
2022/08/30 05:31:26;;;;;;;5.33;2.90;;;24.60;62.00;;;;;;5006508;28;43447;-69
2022/08/30 05:33:55;;;;;;;2.90;2.70;;;24.60;61.70;;;;;;5008211;28;43380;-70
2022/08/30 05:36:24;;;;;;;3.27;2.30;;;24.50;61.50;;;;;;5007840;28;43894;-70
2022/08/30 05:38:53;;;;;;;3.40;2.63;;;24.50;61.60;;;;;;5007670;28;43399;-72
2022/08/30 05:41:21;;;;;;;2.93;2.60;;;24.50;61.70;;;;;;5008179;28;43311;-71
2022/08/30 05:43:53;;;;;;;2.83;2.63;;;24.50;61.70;;;;;;5008524;28;43387;-72
2022/08/30 05:46:21;;;;;;;2.80;2.60;;;24.50;61.10;;;;;;5001266;28;43722;-71
2022/08/30 05:48:49;;;;;;;2.60;2.40;;;24.60;60.70;;;;;;5000038;28;45133;-72
2022/08/30 05:51:18;;;;;;;2.70;2.50;;;24.70;60.20;;;;;;5001657;28;43467;-70
2022/08/30 05:53:46;;;;;;;2.50;2.30;;;24.80;60.80;;;;;;5002375;28;43372;-71
2022/08/30 05:56:18;;;;;;;2.40;2.30;;;24.80;60.00;;;;;;5016133;28;44028;-71
2022/08/30 05:58:46;;;;;;;2.80;2.70;;;24.80;60.40;;;;;;5008295;28;43368;-71
2022/08/30 06:01:20;;;;;;;2.70;2.60;;;24.70;60.40;;;;;;5006595;28;43440;-70
2022/08/30 06:03:48;;;;;;;2.67;2.47;;;24.70;60.30;;;;;;5008570;28;43945;-72
2022/08/30 06:06:16;;;;;;;2.97;2.70;;;24.60;60.60;;;;;;5007601;28;43750;-72
2022/08/30 06:08:46;;;;;;;2.60;2.33;;;24.60;60.80;;;;;;5007651;28;43304;-71
2022/08/30 06:11:15;;;;;;;3.10;2.80;;;24.60;61.00;;;;;;5007396;28;43405;-71
2022/08/30 06:13:43;;;;;;;2.77;2.57;;;24.50;61.50;;;;;;5008069;28;43381;-71
2022/08/30 06:16:12;;;;;;;2.30;2.20;;;24.50;61.10;;;;;;5021655;28;45778;-70
2022/08/30 06:18:40;;;;;;;2.30;2.30;;;24.50;60.90;;;;;;5006351;28;43416;-70
2022/08/30 06:21:08;;;;;;;2.83;2.67;;;24.50;61.10;;;;;;5005672;28;43757;-71
2022/08/30 06:23:41;;;;;;;2.73;2.43;;;24.40;61.00;;;;;;5007955;28;43404;-72
2022/08/30 06:26:09;;;;;;;2.50;2.30;;;24.50;60.90;;;;;;5006694;28;43932;-71
2022/08/30 06:28:39;;;;;;;3.13;2.87;;;24.60;60.40;;;;;;5007093;28;43376;-71
2022/08/30 06:31:07;;;;;;;2.50;2.40;;;24.70;60.00;;;;;;5006854;28;43699;-72
2022/08/30 06:33:35;;;;;;;2.47;2.37;;;24.80;59.70;;;;;;5008033;28;43950;-71
2022/08/30 06:36:04;;;;;;;2.60;2.40;;;24.90;59.70;;;;;;5006830;28;43588;-70
2022/08/30 06:38:33;;;;;;;2.57;2.47;;;24.80;59.70;;;;;;5007423;28;43436;-71
2022/08/30 06:41:04;;;;;;;2.47;2.37;;;24.80;59.90;;;;;;5022170;28;43862;-71
2022/08/30 06:43:32;;;;;;;2.70;2.50;;;24.70;59.90;;;;;;5006338;28;43389;-71
2022/08/30 06:46:03;;;;;;;2.40;2.30;;;24.70;59.90;;;;;;5006667;28;43765;-71
2022/08/30 06:48:31;;;;;;;2.60;2.47;;;24.70;60.30;;;;;;5007069;28;43435;-70
2022/08/30 06:50:59;;;;;;;2.43;2.30;;;24.60;60.40;;;;;;5007033;28;43387;-70
2022/08/30 06:53:28;;;;;;;2.73;2.30;;;24.60;60.30;;;;;;5007688;28;43814;-72
2022/08/30 06:55:58;;;;;;;2.40;2.30;;;24.50;60.30;;;;;;5006830;28;44036;-73
2022/08/30 06:58:26;;;;;;;2.40;2.30;;;24.50;60.50;;;;;;5006702;28;43409;-71
2022/08/30 07:00:54;;;;;;;2.30;2.20;;;24.50;61.40;;;;;;5006594;28;43367;-72
2022/08/30 07:03:24;;;;;;;2.30;2.20;;;24.50;60.80;;;;;;5007362;28;43446;-71
2022/08/30 07:05:52;;;;;;;3.07;2.17;;;24.50;60.70;;;;;;5004083;28;45325;-73
2022/08/30 07:08:21;;;;;;;2.30;2.20;;;24.50;60.70;;;;;;5006691;28;43421;-69
2022/08/30 07:10:49;;;;;;;2.23;2.13;;;24.50;60.80;;;;;;5021533;28;43854;-74
2022/08/30 07:13:18;;;;;;;2.53;2.33;;;24.40;60.90;;;;;;5007661;28;43912;-74
2022/08/30 07:15:46;;;;;;;2.50;2.40;;;24.40;60.60;;;;;;5006989;28;43921;-72
2022/08/30 07:21:06;;;;;;;2.33;2.23;;;24.70;60.00;;;;;;5006726;28;43265;-71
2022/08/30 07:23:34;;;;;;;2.40;2.30;;;24.80;59.60;;;;;;5005568;28;43488;-71
2022/08/30 07:26:04;;;;;;;2.60;2.40;;;24.80;59.60;;;;;;5005477;28;43989;-71
2022/08/30 07:28:32;;;;;;;2.10;2.10;;;24.80;59.60;;;;;;5006180;28;43429;-72
2022/08/30 07:31:00;;;;;;;2.20;2.20;;;24.70;59.80;;;;;;5008628;28;43431;-70
2022/08/30 07:33:29;;;;;;;2.40;2.30;;;24.70;60.00;;;;;;5010320;28;43838;-71
2022/08/30 07:35:57;;;;;;;2.40;2.40;;;24.70;59.90;;;;;;5007438;28;45820;-70
2022/08/30 07:38:29;;;;;;;2.40;2.30;;;24.60;60.10;;;;;;5009428;28;43480;-71
2022/08/30 07:40:57;;;;;;;2.50;2.40;;;24.60;60.30;;;;;;5009981;28;43933;-72
2022/08/30 07:43:25;;;;;;;2.30;2.30;;;24.50;60.40;;;;;;5010273;28;43380;-71
2022/08/30 07:45:54;;;;;;;2.10;2.10;;;24.50;60.30;;;;;;5007904;28;45869;-73
2022/08/30 07:48:22;;;;;;;1.97;1.97;;;24.50;60.40;;;;;;5009741;28;43407;-71
2022/08/30 07:50:50;;;;;;;2.57;2.47;;;24.50;60.50;;;;;;5008114;28;43369;-73
2022/08/30 07:53:25;;;;;;;2.07;2.07;;;24.40;60.60;;;;;;5010307;28;43355;-70
2022/08/30 07:55:54;;;;;;;2.27;2.27;;;24.50;60.40;;;;;;5009562;28;43937;-73
2022/08/30 07:58:22;;;;;;;2.27;2.27;;;24.50;60.10;;;;;;5023622;28;44418;-72
2022/08/30 08:00:51;;;;;;;1.70;1.70;;;24.70;59.80;;;;;;5009403;28;43374;-73
2022/08/30 08:03:19;;;;;;;2.13;2.03;;;24.70;59.40;;;;;;5010046;28;43399;-70
2022/08/30 08:05:47;;;;;;;2.10;2.00;;;24.80;59.50;;;;;;5008341;28;45394;-71
2022/08/30 08:08:15;;;;;;;2.30;2.20;;;24.80;59.60;;;;;;5009238;28;43420;-71
2022/08/30 08:10:43;;;;;;;2.30;2.20;;;24.70;59.80;;;;;;5009832;28;43757;-71
2022/08/30 08:13:12;;;;;;;2.40;2.20;;;24.60;60.30;;;;;;5007857;28;43563;-72
2022/08/30 08:15:41;;;;;;;2.20;2.10;;;24.60;59.80;;;;;;5008699;28;44023;-71
2022/08/30 08:18:11;;;;;;;2.17;2.10;;;24.60;60.00;;;;;;5009198;28;43492;-71
2022/08/30 08:20:39;;;;;;;2.10;2.10;;;24.50;60.10;;;;;;5009505;28;43370;-70
2022/08/30 08:23:07;;;;;;;2.20;2.10;;;24.50;60.40;;;;;;5009537;28;43272;-71
2022/08/30 08:25:38;;;;;;;2.00;2.00;;;24.50;60.40;;;;;;5008462;28;44029;-71
2022/08/30 08:28:06;;;;;;;2.23;2.13;;;24.50;60.40;;;;;;5009382;28;43347;-70
2022/08/30 08:30:36;;;;;;;2.10;2.10;;;24.40;60.30;;;;;;5009256;28;43309;-71
2022/08/30 08:33:05;;;;;;;2.37;2.27;;;24.40;60.60;;;;;;5007684;28;43429;-72
2022/08/30 08:35:33;;;;;;;2.13;1.93;;;24.40;60.50;;;;;;5009462;28;43747;-70
2022/08/30 08:38:01;;;;;;;1.70;1.70;;;24.40;60.50;;;;;;5008564;28;43941;-71
2022/08/30 08:40:29;;;;;;;2.10;1.97;;;24.40;60.50;;;;;;5009470;28;43413;-70
2022/08/30 08:43:01;;;;;;;2.10;2.10;;;24.40;60.90;;;;;;5006847;28;43653;-70
2022/08/30 08:45:42;;;;;;;2.50;2.40;;;24.40;60.70;;;;;;5008975;28;43948;-71
2022/08/30 08:48:11;;;;;;;2.50;2.40;;;24.50;60.30;;;;;;5008857;28;43326;-70
2022/08/30 08:53:33;;;;;;;2.20;2.20;;;24.60;59.90;;;;;;5008929;28;43397;-70
2022/08/30 08:53:34;;;;;;;2.00;2.00;;;24.70;60.30;;;;;;5009428;28;43448;-71
2022/08/30 08:56:15;;;;;;;1.97;1.97;;;24.80;59.60;;;;;;5008389;28;43642;-71
2022/08/30 08:58:44;;;;;;;1.90;1.90;;;24.80;59.60;;;;;;5017421;28;44729;-72
2022/08/30 09:01:15;;;;;;;2.17;2.00;;;24.70;59.70;;;;;;5002078;28;43380;-70
2022/08/30 09:03:43;;;;;;;2.00;2.00;;;24.70;59.90;;;;;;5009646;28;43501;-72
2022/08/30 09:06:28;;;;;;;1.77;1.77;;;24.60;60.00;;;;;;5008259;28;43960;-72
2022/08/30 09:08:56;;;;;;;1.83;1.80;;;24.60;60.80;;;;;;5008325;28;43383;-70
2022/08/30 09:11:27;;;;;;;1.90;1.90;;;24.50;60.30;;;;;;5008660;28;43945;-71
2022/08/30 09:13:55;;;;;;;2.30;2.20;;;24.50;60.70;;;;;;5008717;28;43372;-71
2022/08/30 09:16:46;;;;;;;2.00;2.00;;;24.50;60.50;;;;;;5008448;28;43878;-72
2022/08/30 09:19:28;;;;;;;2.57;1.93;;;24.50;60.50;;;;;;5008424;28;43479;-69
2022/08/30 09:22:02;;;;;;;1.90;1.90;;;24.40;60.70;;;;;;5008138;28;43388;-71
2022/08/30 09:24:37;;;;;;;2.00;2.00;;;24.40;60.80;;;;;;5006439;28;43888;-71
2022/08/30 09:27:21;;;;;;;2.03;2.03;;;24.50;60.50;;;;;;5007890;28;44031;-71
2022/08/30 09:29:56;;;;;;;2.00;2.00;;;24.60;60.00;;;;;;5008014;28;43473;-73
2022/08/30 09:32:35;;;;;;;2.03;1.93;;;24.70;59.90;;;;;;5017144;28;43775;-70
2022/08/30 09:35:05;;;;;;;1.90;1.90;;;24.70;59.70;;;;;;5023172;28;43555;-70
2022/08/30 09:37:38;;;;;;;1.90;1.90;;;24.70;59.90;;;;;;5007803;28;43915;-70
2022/08/30 09:40:13;;;;;;;2.20;2.20;;;24.60;60.00;;;;;;5007322;28;43941;-70
2022/08/30 09:42:41;;;;;;;1.87;1.83;;;24.60;60.40;;;;;;5006449;28;43729;-71
2022/08/30 09:45:20;;;;;;;2.00;2.00;;;24.50;60.30;;;;;;5006230;28;43987;-70
2022/08/30 09:47:49;;;;;;;2.30;2.20;;;24.50;60.40;;;;;;5006457;28;46105;-72
2022/08/30 09:50:19;;;;;;;2.00;1.90;;;24.50;60.80;;;;;;5008041;28;43335;-71
2022/08/30 09:52:57;;;;;;;2.30;2.20;;;24.40;60.70;;;;;;5007811;28;43364;-73
2022/08/30 09:55:36;;;;;;;1.93;1.83;;;24.50;60.40;;;;;;5001958;28;43465;-71
2022/08/30 09:58:09;;;;;;;1.90;1.90;;;24.60;60.10;;;;;;5007596;28;43886;-70
2022/08/30 10:00:42;;;;;;;1.90;1.90;;;24.70;60.00;;;;;;5007843;28;43281;-71
2022/08/30 10:03:31;;;;;;;2.07;2.07;;;24.70;60.00;;;;;;5008172;28;43485;-70
2022/08/30 10:06:12;;;;;;;2.27;2.17;;;24.60;60.10;;;;;;5006698;28;43472;-71
2022/08/30 10:08:49;;;;;;;2.03;1.93;;;24.50;60.40;;;;;;5000634;28;45815;-71
2022/08/30 10:11:21;;;;;;;2.10;2.07;;;24.50;60.40;;;;;;5006044;28;44778;-71
2022/08/30 10:14:11;;;;;;;1.90;1.90;;;24.50;60.60;;;;;;5007970;28;43456;-72
2022/08/30 10:16:45;;;;;;;2.00;1.90;;;24.50;60.50;;;;;;4980008;28;43564;-72
2022/08/30 10:19:22;;;;;;;2.40;2.30;;;24.40;60.90;;;;;;5007285;28;43620;-70
2022/08/30 10:21:53;;;;;;;2.20;2.10;;;24.40;60.90;;;;;;5002273;28;43305;-72
2022/08/30 10:24:24;;;;;;;2.10;1.90;;;24.40;60.90;;;;;;5007384;28;43435;-71
2022/08/30 10:26:55;;;;;;;2.13;2.03;;;24.40;60.60;;;;;;5008147;28;43447;-70
2022/08/30 10:29:25;;;;;;;2.20;2.00;;;24.40;61.10;;;;;;5007253;28;43876;-71
2022/08/30 10:31:55;;;;;;;2.30;2.20;;;24.40;61.00;;;;;;5006771;28;43364;-73
2022/08/30 10:34:26;;;;;;;2.40;2.30;;;24.40;60.50;;;;;;5007524;28;43328;-71
2022/08/30 10:36:56;;;;;;;1.83;1.83;;;24.60;60.30;;;;;;5022049;28;43617;-73
2022/08/30 10:39:25;;;;;;;2.07;2.07;;;24.70;59.90;;;;;;5006934;28;43592;-72
2022/08/30 10:42:00;;;;;;;2.23;2.10;;;24.70;60.00;;;;;;5007231;28;43448;-71
2022/08/30 10:44:29;;;;;;;2.33;2.20;;;24.70;60.20;;;;;;5005708;28;44042;-70
2022/08/30 10:47:02;;;;;;;2.00;2.00;;;24.60;60.20;;;;;;5005592;28;43586;-71
2022/08/30 10:49:34;;;;;;;2.20;2.20;;;24.60;60.60;;;;;;5005337;28;46300;-70
2022/08/30 10:52:10;;;;;;;1.97;1.97;;;24.60;60.60;;;;;;5007020;28;43450;-71
2022/08/30 10:54:41;;;;;;;1.93;1.93;;;24.50;60.50;;;;;;5000955;28;43451;-71
2022/08/30 10:57:09;;;;;;;2.20;2.10;;;24.50;60.80;;;;;;5001130;28;43347;-73
2022/08/30 10:59:38;;;;;;;2.20;2.10;;;24.50;61.10;;;;;;5007122;28;43690;-70
2022/08/30 11:02:22;;;;;;;1.80;1.80;;;24.50;61.10;;;;;;5006577;28;43912;-71
2022/08/30 11:05:03;;;;;;;2.17;2.17;;;24.40;60.90;;;;;;5008113;28;43604;-71
2022/08/30 11:07:37;;;;;;;2.00;2.00;;;24.40;60.90;;;;;;5010995;28;43699;-70
2022/08/30 11:10:26;;;;;;;2.07;2.07;;;24.40;61.60;;;;;;5010146;28;43913;-72
2022/08/30 11:12:58;;;;;;;2.00;2.00;;;24.40;61.20;;;;;;5005128;28;44621;-70
2022/08/30 11:15:30;;;;;;;1.87;1.87;;;24.50;61.00;;;;;;5010546;28;43436;-71
2022/08/30 11:18:00;;;;;;;2.13;2.13;;;24.60;61.30;;;;;;5010383;28;43318;-72
2022/08/30 11:20:36;;;;;;;1.90;1.90;;;24.70;60.40;;;;;;5009916;28;43671;-71
2022/08/30 11:23:22;;;;;;;2.30;2.20;;;24.70;60.40;;;;;;5010252;28;43353;-70
2022/08/30 11:25:52;;;;;;;1.80;1.80;;;24.60;60.60;;;;;;5001859;28;43446;-71
2022/08/30 11:28:59;;;;;;;1.80;1.80;;;24.60;61.00;;;;;;5019936;28;43476;-70
2022/08/30 11:31:33;;;;;;;2.00;2.00;;;24.50;61.00;;;;;;5009983;28;43555;-70
2022/08/30 11:34:02;;;;;;;1.80;1.80;;;24.50;60.90;;;;;;5024736;28;44308;-72
2022/08/30 11:37:06;;;;;;;1.93;1.93;;;24.50;61.10;;;;;;5010249;28;43979;-71
2022/08/30 11:39:54;;;;;;;1.80;1.80;;;24.40;61.60;;;;;;5009074;28;43408;-71
2022/08/30 11:42:27;;;;;;;2.20;2.20;;;24.50;61.50;;;;;;5007857;28;44032;-71
2022/08/30 11:45:34;;;;;;;2.00;2.00;;;24.40;61.30;;;;;;5009586;28;43426;-72
2022/08/30 11:48:04;;;;;;;2.07;2.03;;;24.40;61.30;;;;;;5009690;28;43360;-71
2022/08/30 11:50:34;;;;;;;2.17;2.17;;;24.40;62.00;;;;;;5004170;28;43440;-72
2022/08/30 11:53:05;;;;;;;1.80;1.80;;;24.40;61.60;;;;;;5008114;28;46173;-72
2022/08/30 11:55:58;;;;;;;1.80;1.80;;;24.50;61.40;;;;;;5008179;28;44746;-70
2022/08/30 11:58:32;;;;;;;2.00;1.90;;;24.70;61.10;;;;;;4999183;28;43497;-71
2022/08/30 12:01:32;;;;;;;1.90;1.90;;;24.70;61.40;;;;;;5009943;28;43369;-70
2022/08/30 12:04:27;;;;;;;1.87;1.87;;;24.70;60.60;;;;;;4984188;28;44599;-71
2022/08/30 12:06:55;;;;;;;1.90;1.90;;;24.70;61.00;;;;;;5003292;28;44011;-72
2022/08/30 12:10:00;;;;;;;1.97;1.97;;;24.60;61.20;;;;;;5003283;28;43328;-71
2022/08/30 12:12:52;;;;;;;1.90;1.90;;;24.60;61.20;;;;;;5009991;28;43309;-72
2022/08/30 12:15:56;;;;;;;1.90;1.87;;;24.50;61.10;;;;;;5000503;28;44056;-70
2022/08/30 12:18:29;;;;;;;1.90;1.90;;;24.50;61.70;;;;;;5008565;28;43594;-71
2022/08/30 12:21:01;;;;;;;1.90;1.90;;;24.50;61.70;;;;;;5003244;28;43361;-71
2022/08/30 12:23:41;;;;;;;1.90;1.90;;;24.50;61.70;;;;;;5009698;28;43356;-71
2022/08/30 12:26:29;;;;;;;2.00;2.00;;;24.40;61.50;;;;;;5008960;28;43648;-72
2022/08/30 12:29:13;;;;;;;3.87;2.13;;;24.40;62.10;;;;;;5008867;28;43996;-71
2022/08/30 12:31:42;;;;;;;2.03;1.93;;;24.40;62.10;;;;;;5001994;28;43401;-70
2022/08/30 12:34:24;;;;;;;2.00;2.00;;;24.50;61.70;;;;;;5009415;28;43569;-71
2022/08/30 12:36:57;;;;;;;2.10;2.00;;;24.60;61.20;;;;;;5007259;28;45745;-73
2022/08/30 12:39:27;;;;;;;2.40;2.10;;;24.70;60.60;;;;;;5009192;28;43344;-71
2022/08/30 12:41:55;;;;;;;1.97;1.97;;;24.70;61.20;;;;;;5009004;28;43356;-71
2022/08/30 12:44:26;;;;;;;2.00;2.00;;;24.60;61.20;;;;;;5009679;28;43439;-70
2022/08/30 12:46:56;;;;;;;2.10;2.10;;;24.60;61.70;;;;;;5008907;28;43929;-72
2022/08/30 12:49:28;;;;;;;2.13;2.13;;;24.50;61.60;;;;;;5008786;28;43404;-70
2022/08/30 12:51:56;;;;;;;2.00;1.93;;;24.50;61.70;;;;;;5008762;28;43373;-71
2022/08/30 12:54:27;;;;;;;2.20;2.20;;;24.50;61.70;;;;;;5009480;28;43447;-71
2022/08/30 12:57:00;;;;;;;1.87;1.80;;;24.40;62.20;;;;;;5007048;28;44692;-69
2022/08/30 12:59:51;;;;;;;1.70;1.70;;;24.40;62.00;;;;;;5008903;28;43437;-70
2022/08/30 13:02:27;;;;;;;2.17;2.17;;;24.40;61.90;;;;;;5007146;28;43368;-72
2022/08/30 13:04:55;;;;;;;1.90;1.90;;;24.40;61.90;;;;;;5008613;28;44069;-71
2022/08/30 13:07:32;;;;;;;1.90;1.90;;;24.40;62.50;;;;;;5008542;28;43906;-71
2022/08/30 13:10:13;;;;;;;2.00;2.00;;;24.40;62.40;;;;;;5008448;28;43808;-72